Time;durP1;ratioP1;P1;durP2;ratioP2;P2;SDS_P1;SDS_P2;PMS_P1;PMS_P2;Temp;Humidity;BMP_temperature;BMP_pressure;BME280_temperature;BME280_humidity;BME280_pressure;Samples;Min_cycle;Max_cycle;Signal;HPM_P1;HPM_P2
2022/04/16 00:00:52;;;;;;;;;;;23.30;34.70;;;;;;4945552;29;20354;-65
2022/04/16 00:03:21;;;;;;;;;;;23.30;34.60;;;;;;4949566;29;19984;-64
2022/04/16 00:05:51;;;;;;;;;;;23.30;34.60;;;;;;4949573;29;19926;-64
2022/04/16 00:08:19;;;;;;;;;;;23.30;34.60;;;;;;4949189;28;19991;-64
2022/04/16 00:10:46;;;;;;;;;;;23.30;34.60;;;;;;4949941;29;19930;-64
2022/04/16 00:13:14;;;;;;;;;;;23.30;34.60;;;;;;4949301;29;19953;-64
2022/04/16 00:15:42;;;;;;;;;;;23.40;35.20;;;;;;4949781;29;20317;-64
2022/04/16 00:18:10;;;;;;;;;;;23.30;34.50;;;;;;4949777;29;19984;-64
2022/04/16 00:20:43;;;;;;;;;;;23.30;34.50;;;;;;4949306;29;20422;-64
2022/04/16 00:23:10;;;;;;;;;;;23.30;34.50;;;;;;4947980;29;20013;-64
2022/04/16 00:25:37;;;;;;;;;;;23.30;34.50;;;;;;4949619;29;19927;-64
2022/04/16 00:28:04;;;;;;;;;;;23.30;34.50;;;;;;4949566;29;19926;-64
2022/04/16 00:30:37;;;;;;;;;;;23.30;34.50;;;;;;4949078;29;19980;-64
2022/04/16 00:33:05;;;;;;;;;;;23.40;34.50;;;;;;4944774;29;19926;-63
2022/04/16 00:35:34;;;;;;;;;;;23.40;34.50;;;;;;4949488;29;19980;-64
2022/04/16 00:38:01;;;;;;;;;;;23.40;34.50;;;;;;4931873;29;20374;-64
2022/04/16 00:40:28;;;;;;;;;;;23.40;34.50;;;;;;4949362;28;19928;-64
2022/04/16 00:42:55;;;;;;;;;;;23.30;34.50;;;;;;4948811;29;19934;-64
2022/04/16 00:45:23;;;;;;;;;;;23.40;34.50;;;;;;4949011;28;20386;-64
2022/04/16 00:47:50;;;;;;;;;;;23.30;34.50;;;;;;4949066;29;19930;-64
2022/04/16 00:50:17;;;;;;;;;;;23.30;34.50;;;;;;4949025;29;19931;-64
2022/04/16 00:52:44;;;;;;;;;;;23.30;34.50;;;;;;4948926;29;19931;-64
2022/04/16 00:55:11;;;;;;;;;;;23.30;34.50;;;;;;4948864;29;20622;-63
2022/04/16 00:57:40;;;;;;;;;;;23.40;35.10;;;;;;4948719;29;20362;-64
2022/04/16 01:00:08;;;;;;;;;;;23.30;34.50;;;;;;4948846;29;19927;-64
2022/04/16 01:02:36;;;;;;;;;;;23.30;34.50;;;;;;4948619;29;19930;-64
2022/04/16 01:05:04;;;;;;;;;;;23.30;34.50;;;;;;4945199;29;20453;-64
2022/04/16 01:07:32;;;;;;;;;;;23.40;34.50;;;;;;4948006;28;20385;-64
2022/04/16 01:09:59;;;;;;;;;;;23.30;34.50;;;;;;4948452;29;19927;-65
2022/04/16 01:12:26;;;;;;;;;;;23.30;34.50;;;;;;4948479;29;20378;-64
2022/04/16 01:14:53;;;;;;;;;;;23.30;34.50;;;;;;4948574;29;19927;-64
2022/04/16 01:17:20;;;;;;;;;;;23.40;34.60;;;;;;4948067;28;19979;-64
2022/04/16 01:19:47;;;;;;;;;;;23.30;34.50;;;;;;4947619;29;19931;-64
2022/04/16 01:22:15;;;;;;;;;;;23.30;34.60;;;;;;4931406;29;19930;-64
2022/04/16 01:24:48;;;;;;;;;;;23.30;34.60;;;;;;4949033;28;19957;-64
2022/04/16 01:27:17;;;;;;;;;;;23.30;34.70;;;;;;4948518;28;19934;-64
2022/04/16 01:29:44;;;;;;;;;;;23.30;34.80;;;;;;4948325;28;19937;-64
2022/04/16 01:32:11;;;;;;;;;;;23.30;34.80;;;;;;4948232;28;19930;-64
2022/04/16 01:34:40;;;;;;;;;;;23.20;34.80;;;;;;4944570;29;20382;-64
2022/04/16 01:37:09;;;;;;;;;;;23.20;34.80;;;;;;4947984;28;19980;-64
2022/04/16 01:39:36;;;;;;;;;;;23.30;34.90;;;;;;4947741;28;19930;-64
2022/04/16 01:42:04;;;;;;;;;;;23.20;34.90;;;;;;4948286;28;19988;-66
2022/04/16 01:44:32;;;;;;;;;;;23.20;34.90;;;;;;4947675;28;20176;-64
2022/04/16 01:46:59;;;;;;;;;;;23.20;34.90;;;;;;4948357;29;19931;-64
2022/04/16 01:49:26;;;;;;;;;;;23.20;34.90;;;;;;4948141;28;19980;-64
2022/04/16 01:51:54;;;;;;;;;;;23.20;34.90;;;;;;4948177;29;20283;-64
2022/04/16 01:54:21;;;;;;;;;;;23.20;34.90;;;;;;4948041;28;19926;-64
2022/04/16 01:56:49;;;;;;;;;;;23.20;34.80;;;;;;4948016;28;19927;-64
2022/04/16 01:59:16;;;;;;;;;;;23.20;34.80;;;;;;4947891;29;20457;-64
2022/04/16 02:01:45;;;;;;;;;;;23.30;34.80;;;;;;4946798;28;19953;-64
2022/04/16 02:04:12;;;;;;;;;;;23.20;34.70;;;;;;4945457;29;20001;-64
2022/04/16 02:06:39;;;;;;;;;;;23.30;34.80;;;;;;4941426;29;19954;-64
2022/04/16 02:09:06;;;;;;;;;;;23.30;34.80;;;;;;4928288;28;20021;-64
2022/04/16 02:11:33;;;;;;;;;;;23.30;34.70;;;;;;4945542;28;19926;-64
2022/04/16 02:14:02;;;;;;;;;;;23.30;34.70;;;;;;4945130;28;19957;-64
2022/04/16 02:16:29;;;;;;;;;;;23.30;34.70;;;;;;4945518;28;19934;-64
2022/04/16 02:18:56;;;;;;;;;;;23.30;34.70;;;;;;4945574;28;19993;-64
2022/04/16 02:21:23;;;;;;;;;;;23.30;34.70;;;;;;4945390;28;20273;-64
2022/04/16 02:23:51;;;;;;;;;;;23.30;34.70;;;;;;4945142;29;20399;-64
2022/04/16 02:26:20;;;;;;;;;;;23.30;34.70;;;;;;4945205;28;19937;-64
2022/04/16 02:28:48;;;;;;;;;;;23.30;34.70;;;;;;4945620;29;19962;-64
2022/04/16 02:31:15;;;;;;;;;;;23.30;34.70;;;;;;4944338;28;19942;-64
2022/04/16 02:33:42;;;;;;;;;;;23.30;34.70;;;;;;4944952;28;19933;-64
2022/04/16 02:36:10;;;;;;;;;;;23.30;34.60;;;;;;4945004;29;19966;-64
2022/04/16 02:38:38;;;;;;;;;;;23.30;34.70;;;;;;4940337;28;19970;-64
2022/04/16 02:41:06;;;;;;;;;;;23.30;34.70;;;;;;4945396;29;19934;-64
2022/04/16 02:43:33;;;;;;;;;;;23.30;34.70;;;;;;4945192;28;20302;-64
2022/04/16 02:48:48;;;;;;;;;;;23.20;34.60;;;;;;4944870;28;19936;-64
2022/04/16 02:51:15;;;;;;;;;;;23.20;34.70;;;;;;4945103;28;19984;-65
2022/04/16 02:53:42;;;;;;;;;;;23.20;34.70;;;;;;4944663;28;19927;-64
2022/04/16 02:56:09;;;;;;;;;;;23.20;34.70;;;;;;4944590;28;20430;-63
2022/04/16 02:58:36;;;;;;;;;;;23.20;34.70;;;;;;4944514;28;19982;-64
2022/04/16 03:01:04;;;;;;;;;;;23.20;34.70;;;;;;4927496;29;20135;-64
2022/04/16 03:03:31;;;;;;;;;;;23.20;34.70;;;;;;4944913;28;19926;-64
2022/04/16 03:05:58;;;;;;;;;;;23.20;34.70;;;;;;4944377;29;19981;-64
2022/04/16 03:08:25;;;;;;;;;;;23.20;34.70;;;;;;4945176;28;20223;-64
2022/04/16 03:10:52;;;;;;;;;;;23.20;34.70;;;;;;4940051;29;19930;-64
2022/04/16 03:13:19;;;;;;;;;;;23.20;34.70;;;;;;4944824;28;19926;-64
2022/04/16 03:18:33;;;;;;;;;;;23.20;34.70;;;;;;4944951;28;20017;-64
2022/04/16 03:21:01;;;;;;;;;;;23.10;34.80;;;;;;4944327;28;19930;-64
2022/04/16 03:23:28;;;;;;;;;;;23.10;34.80;;;;;;4944431;28;20366;-64
2022/04/16 03:25:56;;;;;;;;;;;23.10;34.80;;;;;;4944160;28;20488;-63
2022/04/16 03:28:23;;;;;;;;;;;23.00;34.90;;;;;;4944484;29;20426;-64
2022/04/16 03:30:50;;;;;;;;;;;23.10;35.00;;;;;;4944401;28;19981;-63
2022/04/16 03:33:17;;;;;;;;;;;23.00;34.90;;;;;;4944333;28;19926;-64
2022/04/16 03:35:44;;;;;;;;;;;23.00;34.90;;;;;;4943963;28;19976;-64
2022/04/16 03:38:11;;;;;;;;;;;23.00;34.90;;;;;;4944399;28;20323;-64
2022/04/16 03:40:40;;;;;;;;;;;23.00;34.90;;;;;;4942256;28;20433;-64
2022/04/16 03:43:07;;;;;;;;;;;23.00;35.00;;;;;;4943233;28;20443;-64
2022/04/16 03:45:35;;;;;;;;;;;23.00;35.00;;;;;;4947519;28;19927;-64
2022/04/16 03:48:05;;;;;;;;;;;23.00;35.00;;;;;;4947509;28;20472;-64
2022/04/16 03:50:32;;;;;;;;;;;23.00;34.90;;;;;;4947973;29;19927;-64
2022/04/16 03:53:00;;;;;;;;;;;23.00;34.90;;;;;;4947875;29;19984;-64
2022/04/16 04:01:03;;;;;;;;;;;23.10;35.00;;;;;;4947024;29;19926;-63
2022/04/16 04:03:30;;;;;;;;;;;23.10;34.90;;;;;;4947667;28;19970;-64
2022/04/16 04:05:58;;;;;;;;;;;23.10;34.90;;;;;;4946997;29;19927;-64
2022/04/16 04:08:25;;;;;;;;;;;23.10;34.90;;;;;;4947085;29;20349;-64
2022/04/16 04:10:52;;;;;;;;;;;23.10;34.80;;;;;;4947054;29;19927;-64
2022/04/16 04:13:20;;;;;;;;;;;23.10;35.00;;;;;;4942614;28;20005;-64
2022/04/16 04:15:47;;;;;;;;;;;23.10;34.80;;;;;;4947023;29;19938;-64
2022/04/16 04:18:14;;;;;;;;;;;23.10;34.80;;;;;;4947552;28;20342;-64
2022/04/16 04:20:41;;;;;;;;;;;23.10;34.80;;;;;;4946649;29;19985;-64
2022/04/16 04:23:08;;;;;;;;;;;23.10;34.80;;;;;;4946899;28;20386;-64
2022/04/16 04:25:35;;;;;;;;;;;23.10;34.70;;;;;;4947285;29;19927;-64
2022/04/16 04:28:02;;;;;;;;;;;23.10;34.70;;;;;;4947124;28;19926;-64
2022/04/16 04:30:30;;;;;;;;;;;23.10;34.70;;;;;;4947108;28;20336;-64
2022/04/16 04:32:58;;;;;;;;;;;23.20;35.30;;;;;;4947040;28;20365;-64
2022/04/16 04:35:26;;;;;;;;;;;23.10;34.70;;;;;;4946494;29;19926;-64
2022/04/16 04:37:53;;;;;;;;;;;23.20;34.70;;;;;;4946558;29;19930;-64
2022/04/16 04:40:20;;;;;;;;;;;23.20;34.70;;;;;;4946805;29;19980;-64
2022/04/16 04:42:47;;;;;;;;;;;23.20;34.70;;;;;;4929607;29;19930;-64
2022/04/16 04:45:15;;;;;;;;;;;23.20;34.70;;;;;;4942657;28;20522;-64
2022/04/16 04:47:42;;;;;;;;;;;23.20;34.60;;;;;;4946048;28;20371;-64
2022/04/16 04:50:09;;;;;;;;;;;23.20;34.60;;;;;;4946885;28;20346;-64
2022/04/16 04:52:37;;;;;;;;;;;23.20;34.60;;;;;;4946372;28;19931;-64
2022/04/16 04:55:06;;;;;;;;;;;23.20;34.60;;;;;;4945658;28;19992;-64
2022/04/16 04:57:33;;;;;;;;;;;23.30;34.60;;;;;;4946530;28;19934;-64
2022/04/16 05:00:01;;;;;;;;;;;23.30;34.60;;;;;;4946963;29;19952;-64
2022/04/16 05:02:36;;;;;;;;;;;23.20;34.50;;;;;;4945906;28;19984;-64
2022/04/16 05:05:03;;;;;;;;;;;23.20;34.50;;;;;;4946671;28;20400;-64
2022/04/16 05:07:31;;;;;;;;;;;23.20;34.40;;;;;;4946038;29;20204;-64
2022/04/16 05:09:57;;;;;;;;;;;23.30;34.40;;;;;;4946511;28;20011;-64
2022/04/16 05:12:24;;;;;;;;;;;23.30;34.30;;;;;;4946381;28;19996;-64
2022/04/16 05:14:51;;;;;;;;;;;23.30;34.20;;;;;;4946373;28;19965;-64
2022/04/16 05:17:18;;;;;;;;;;;23.30;34.20;;;;;;4941855;28;19980;-64
2022/04/16 05:19:45;;;;;;;;;;;23.30;34.10;;;;;;4946579;28;19926;-64
2022/04/16 05:22:12;;;;;;;;;;;23.30;34.00;;;;;;4928628;28;20448;-64
2022/04/16 05:24:39;;;;;;;;;;;23.30;34.00;;;;;;4945882;28;20345;-66
2022/04/16 05:27:09;;;;;;;;;;;23.30;33.90;;;;;;4945657;28;20046;-64
2022/04/16 05:29:56;;;;;;;;;;;23.40;34.00;;;;;;4946058;28;19991;-64
2022/04/16 05:32:24;;;;;;;;;;;23.30;33.90;;;;;;4945822;28;20460;-64
2022/04/16 05:34:55;;;;;;;;;;;23.40;34.00;;;;;;4945950;29;20036;-64
2022/04/16 05:37:22;;;;;;;;;;;23.40;34.00;;;;;;4945508;28;20298;-64
2022/04/16 05:39:49;;;;;;;;;;;23.40;33.90;;;;;;4946007;29;19957;-64
2022/04/16 05:42:16;;;;;;;;;;;23.40;33.90;;;;;;4945675;28;19980;-64
2022/04/16 05:44:43;;;;;;;;;;;23.40;33.80;;;;;;4945890;28;19930;-65
2022/04/16 05:47:10;;;;;;;;;;;23.40;33.80;;;;;;4942915;28;19926;-64
2022/04/16 05:49:37;;;;;;;;;;;23.40;33.80;;;;;;4945052;28;19988;-64
2022/04/16 05:52:05;;;;;;;;;;;23.40;33.80;;;;;;4945527;29;19938;-64
2022/04/16 05:54:32;;;;;;;;;;;23.40;33.80;;;;;;4946196;29;20000;-64
2022/04/16 05:56:59;;;;;;;;;;;23.40;33.80;;;;;;4945230;28;20382;-64
2022/04/16 05:59:26;;;;;;;;;;;23.50;33.80;;;;;;4945566;28;19993;-64
2022/04/16 06:01:53;;;;;;;;;;;23.50;33.70;;;;;;4945653;28;20346;-65
2022/04/16 06:04:20;;;;;;;;;;;23.50;33.70;;;;;;4945616;28;19926;-64
2022/04/16 06:06:47;;;;;;;;;;;23.50;33.70;;;;;;4946176;29;19930;-64
2022/04/16 06:09:14;;;;;;;;;;;23.50;33.70;;;;;;4947598;29;19986;-64
2022/04/16 06:11:42;;;;;;;;;;;23.50;33.60;;;;;;4947675;28;20048;-64
2022/04/16 06:14:09;;;;;;;;;;;23.50;33.60;;;;;;4948197;28;19941;-64
2022/04/16 06:16:37;;;;;;;;;;;23.50;33.60;;;;;;4946972;28;19982;-64
2022/04/16 06:19:04;;;;;;;;;;;23.50;33.60;;;;;;4943317;28;19931;-64
2022/04/16 06:21:31;;;;;;;;;;;23.60;33.60;;;;;;4947429;28;20007;-64
2022/04/16 06:23:58;;;;;;;;;;;23.60;33.50;;;;;;4947473;28;20333;-64
2022/04/16 06:26:26;;;;;;;;;;;23.60;33.50;;;;;;4947558;28;19992;-64
2022/04/16 06:28:53;;;;;;;;;;;23.60;33.50;;;;;;4947552;28;19930;-64
2022/04/16 06:31:20;;;;;;;;;;;23.60;33.50;;;;;;4947486;28;20013;-64
2022/04/16 06:33:47;;;;;;;;;;;23.70;33.50;;;;;;4947449;29;19930;-64
2022/04/16 06:36:14;;;;;;;;;;;23.70;33.50;;;;;;4947387;28;19973;-64
2022/04/16 06:38:42;;;;;;;;;;;23.70;33.40;;;;;;4947284;28;19973;-64
2022/04/16 06:41:09;;;;;;;;;;;23.70;33.30;;;;;;4930436;28;19976;-64
2022/04/16 06:43:36;;;;;;;;;;;23.80;33.30;;;;;;4947280;29;20451;-64
2022/04/16 06:46:03;;;;;;;;;;;23.80;33.30;;;;;;4947295;28;19927;-64
2022/04/16 06:48:30;;;;;;;;;;;23.80;33.20;;;;;;4947076;29;19962;-64
2022/04/16 06:50:57;;;;;;;;;;;23.80;33.20;;;;;;4943282;28;19926;-64
2022/04/16 06:53:28;;;;;;;;;;;23.90;33.20;;;;;;4947122;29;20036;-64
2022/04/16 06:55:54;;;;;;;;;;;23.90;33.10;;;;;;4946976;29;19930;-65
2022/04/16 06:58:21;;;;;;;;;;;23.90;33.00;;;;;;4947125;28;19974;-64
2022/04/16 07:00:48;;;;;;;;;;;23.90;33.00;;;;;;4947270;28;19984;-64
2022/04/16 07:03:16;;;;;;;;;;;23.90;32.90;;;;;;4930123;29;20302;-64
2022/04/16 07:05:44;;;;;;;;;;;23.90;32.90;;;;;;4947087;28;19980;-64
2022/04/16 07:08:11;;;;;;;;;;;23.90;32.90;;;;;;4947031;28;19933;-64
2022/04/16 07:10:39;;;;;;;;;;;23.90;32.80;;;;;;4946836;28;19927;-64
2022/04/16 07:13:06;;;;;;;;;;;23.90;32.80;;;;;;4947026;28;19930;-64
2022/04/16 07:15:36;;;;;;;;;;;24.00;32.80;;;;;;4947103;28;19926;-64
2022/04/16 07:18:04;;;;;;;;;;;24.00;32.70;;;;;;4948873;28;20454;-64
2022/04/16 07:20:31;;;;;;;;;;;24.10;32.70;;;;;;4950224;28;19934;-64
2022/04/16 07:23:05;;;;;;;;;;;24.10;32.60;;;;;;4945391;28;19981;-64
2022/04/16 07:25:33;;;;;;;;;;;24.10;32.50;;;;;;4950123;29;19926;-64
2022/04/16 07:28:00;;;;;;;;;;;24.20;32.50;;;;;;4950428;29;19931;-64
2022/04/16 07:30:30;;;;;;;;;;;24.30;32.40;;;;;;4949994;28;20366;-64
2022/04/16 07:32:57;;;;;;;;;;;24.30;32.30;;;;;;4950206;28;20488;-64
2022/04/16 07:35:27;;;;;;;;;;;24.30;32.30;;;;;;4950003;28;20404;-64
2022/04/16 07:37:57;;;;;;;;;;;24.40;32.20;;;;;;4950424;29;19926;-64
2022/04/16 07:40:25;;;;;;;;;;;24.40;32.20;;;;;;4950279;28;19973;-64
2022/04/16 07:42:52;;;;;;;;;;;24.40;32.10;;;;;;4949818;28;20434;-64
2022/04/16 07:45:21;;;;;;;;;;;24.50;32.10;;;;;;4949800;28;19927;-64
2022/04/16 07:47:48;;;;;;;;;;;24.40;32.00;;;;;;4949706;29;19963;-64
2022/04/16 07:50:19;;;;;;;;;;;24.50;31.90;;;;;;4949709;28;19931;-64
2022/04/16 07:52:46;;;;;;;;;;;24.50;31.90;;;;;;4948692;29;19972;-64
2022/04/16 07:55:14;;;;;;;;;;;24.50;31.90;;;;;;4930069;28;19953;-64
2022/04/16 07:57:41;;;;;;;;;;;24.50;31.80;;;;;;4949630;28;19927;-64
2022/04/16 08:00:09;;;;;;;;;;;24.50;31.80;;;;;;4949814;28;19930;-65
2022/04/16 08:02:36;;;;;;;;;;;24.50;31.80;;;;;;4949865;28;19926;-64
2022/04/16 08:05:04;;;;;;;;;;;24.50;31.70;;;;;;4949616;29;19927;-64
2022/04/16 08:07:32;;;;;;;;;;;24.50;31.70;;;;;;4949816;28;20339;-64
2022/04/16 08:09:59;;;;;;;;;;;24.50;31.70;;;;;;4949485;28;20378;-64
2022/04/16 08:12:26;;;;;;;;;;;24.60;31.70;;;;;;4949599;28;19942;-64
2022/04/16 08:14:53;;;;;;;;;;;24.60;31.70;;;;;;4949576;28;19933;-64
2022/04/16 08:17:21;;;;;;;;;;;24.60;31.60;;;;;;4949372;28;19927;-64
2022/04/16 08:19:47;;;;;;;;;;;24.60;31.60;;;;;;4949411;28;19977;-64
2022/04/16 08:22:21;;;;;;;;;;;24.50;31.50;;;;;;4949301;28;19980;-65
2022/04/16 08:25:43;;;;;;;;;;;24.50;31.60;;;;;;4945341;28;19985;-64
2022/04/16 08:27:36;;;;;;;;;;;24.60;31.60;;;;;;4948950;28;20418;-64
2022/04/16 08:30:04;;;;;;;;;;;24.60;31.50;;;;;;4947601;28;19980;-64
2022/04/16 08:32:35;;;;;;;;;;;24.60;31.50;;;;;;4949239;29;19926;-64
2022/04/16 08:35:02;;;;;;;;;;;24.70;31.50;;;;;;4949277;29;19938;-64
2022/04/16 08:37:29;;;;;;;;;;;24.60;31.40;;;;;;4932610;29;19927;-64
2022/04/16 08:39:56;;;;;;;;;;;24.70;31.50;;;;;;4949283;28;20099;-64
2022/04/16 08:42:23;;;;;;;;;;;24.70;31.50;;;;;;4948942;29;19926;-64
2022/04/16 08:44:50;;;;;;;;;;;24.80;31.50;;;;;;4948991;29;20375;-64
2022/04/16 08:47:17;;;;;;;;;;;24.80;31.40;;;;;;4949120;29;19927;-65
2022/04/16 08:49:44;;;;;;;;;;;24.80;31.40;;;;;;4948901;28;19927;-64
2022/04/16 08:52:11;;;;;;;;;;;24.90;31.30;;;;;;4948950;28;19949;-64
2022/04/16 08:54:41;;;;;;;;;;;24.90;31.30;;;;;;4949252;28;19930;-64
2022/04/16 08:57:09;;;;;;;;;;;24.90;31.30;;;;;;4944431;28;19970;-64
2022/04/16 08:59:35;;;;;;;;;;;25.00;31.20;;;;;;4949291;29;19958;-64
2022/04/16 09:02:04;;;;;;;;;;;25.00;31.10;;;;;;4948640;28;19930;-64
2022/04/16 09:04:31;;;;;;;;;;;25.00;31.10;;;;;;4948957;28;19926;-64
2022/04/16 09:06:59;;;;;;;;;;;25.10;31.20;;;;;;4948739;28;19935;-64
2022/04/16 09:09:26;;;;;;;;;;;25.10;31.10;;;;;;4948835;28;19927;-64
2022/04/16 09:11:53;;;;;;;;;;;25.10;31.10;;;;;;4948428;29;19970;-64
2022/04/16 09:14:35;;;;;;;;;;;25.10;31.10;;;;;;4948611;28;19927;-65
2022/04/16 09:17:07;;;;;;;;;;;25.10;31.00;;;;;;4948627;28;19980;-64
2022/04/16 09:19:34;;;;;;;;;;;25.10;31.00;;;;;;4948949;29;20302;-64
2022/04/16 09:22:01;;;;;;;;;;;25.10;30.90;;;;;;4948369;28;19930;-64
2022/04/16 09:24:43;;;;;;;;;;;25.10;30.80;;;;;;4948490;28;19930;-64
2022/04/16 09:27:10;;;;;;;;;;;25.10;30.80;;;;;;4948490;28;20055;-64
2022/04/16 09:29:40;;;;;;;;;;;25.10;30.80;;;;;;4943986;28;19927;-64
2022/04/16 09:32:07;;;;;;;;;;;25.10;30.80;;;;;;4948426;29;19930;-64
2022/04/16 09:34:34;;;;;;;;;;;25.00;30.70;;;;;;4948223;28;20375;-65
2022/04/16 09:37:14;;;;;;;;;;;25.00;30.70;;;;;;4948572;28;20029;-64
2022/04/16 09:39:42;;;;;;;;;;;25.00;30.70;;;;;;4948371;28;19934;-64
2022/04/16 09:42:09;;;;;;;;;;;25.00;30.70;;;;;;4948204;28;19934;-64
2022/04/16 09:44:36;;;;;;;;;;;25.00;30.70;;;;;;4948264;29;19972;-65
2022/04/16 09:47:03;;;;;;;;;;;25.10;30.70;;;;;;4947674;29;20398;-65
2022/04/16 09:49:32;;;;;;;;;;;25.00;30.70;;;;;;4948042;28;20378;-64
2022/04/16 09:52:01;;;;;;;;;;;25.10;30.70;;;;;;4947970;29;19935;-64
2022/04/16 09:54:29;;;;;;;;;;;25.10;30.80;;;;;;4948347;28;20138;-64
2022/04/16 09:57:00;;;;;;;;;;;25.10;30.70;;;;;;4947950;29;19930;-64
2022/04/16 09:59:29;;;;;;;;;;;25.20;30.70;;;;;;4929355;29;19927;-65
2022/04/16 10:01:57;;;;;;;;;;;25.20;30.60;;;;;;4945029;29;19966;-64
2022/04/16 10:04:24;;;;;;;;;;;25.20;30.60;;;;;;4947777;29;19927;-64
2022/04/16 10:06:51;;;;;;;;;;;25.30;30.50;;;;;;4947812;29;20337;-65
2022/04/16 10:09:22;;;;;;;;;;;25.30;30.50;;;;;;4948019;29;19930;-64
2022/04/16 10:14:44;;;;;;;;;;;25.30;30.40;;;;;;4947893;28;19953;-64
2022/04/16 10:17:22;;;;;;;;;;;25.40;30.40;;;;;;4947695;28;19996;-64
2022/04/16 10:19:49;;;;;;;;;;;25.40;30.50;;;;;;4947921;28;19984;-64
2022/04/16 10:22:24;;;;;;;;;;;25.40;30.30;;;;;;4947356;28;20022;-64
2022/04/16 10:24:57;;;;;;;;;;;25.40;30.30;;;;;;4947175;28;19980;-64
2022/04/16 10:27:28;;;;;;;;;;;25.40;30.20;;;;;;4947323;28;19926;-64
2022/04/16 10:29:59;;;;;;;;;;;25.50;30.20;;;;;;4947552;29;19992;-64
2022/04/16 10:32:38;;;;;;;;;;;25.50;30.10;;;;;;4943124;29;20379;-64
2022/04/16 10:35:06;;;;;;;;;;;25.50;30.00;;;;;;4947470;29;19972;-64
2022/04/16 10:37:38;;;;;;;;;;;25.60;30.10;;;;;;4947158;29;19926;-64
2022/04/16 10:40:19;;;;;;;;;;;25.60;30.10;;;;;;4947509;29;19961;-65
2022/04/16 10:42:48;;;;;;;;;;;25.60;30.00;;;;;;4947000;28;19981;-65
2022/04/16 10:45:20;;;;;;;;;;;25.60;30.00;;;;;;4947754;28;20345;-65
2022/04/16 10:47:49;;;;;;;;;;;25.60;30.00;;;;;;4947203;28;20268;-64
2022/04/16 10:50:18;;;;;;;;;;;25.60;30.00;;;;;;4947399;29;19938;-64
2022/04/16 10:52:52;;;;;;;;;;;25.60;30.00;;;;;;4945370;28;19980;-65
2022/04/16 10:55:21;;;;;;;;;;;25.60;30.00;;;;;;4930864;28;20000;-64
2022/04/16 10:58:04;;;;;;;;;;;25.70;30.00;;;;;;4947351;28;19927;-65
2022/04/16 11:00:36;;;;;;;;;;;25.70;30.00;;;;;;4946995;29;19981;-65
2022/04/16 11:03:12;;;;;;;;;;;25.70;30.00;;;;;;4942753;28;19927;-65
2022/04/16 11:05:41;;;;;;;;;;;25.70;29.90;;;;;;4947039;29;20438;-65
2022/04/16 11:08:10;;;;;;;;;;;25.70;29.90;;;;;;4946943;28;19965;-64
2022/04/16 11:10:38;;;;;;;;;;;25.70;29.90;;;;;;4947094;28;20004;-65
2022/04/16 11:13:05;;;;;;;;;;;25.70;29.90;;;;;;4946713;28;20386;-64
2022/04/16 11:15:32;;;;;;;;;;;25.70;29.90;;;;;;4947340;28;20013;-64
2022/04/16 11:18:00;;;;;;;;;;;25.70;29.90;;;;;;4947010;29;19976;-64
2022/04/16 11:20:28;;;;;;;;;;;25.70;29.90;;;;;;4947717;29;20282;-64
2022/04/16 11:22:55;;;;;;;;;;;25.70;29.90;;;;;;4946503;29;19958;-64
2022/04/16 11:25:23;;;;;;;;;;;25.70;29.80;;;;;;4946921;29;20464;-64
2022/04/16 11:36:14;;;;;;;;;;;25.60;29.70;;;;;;4943677;29;19931;-64
2022/04/16 11:38:42;;;;;;;;;;;25.60;29.80;;;;;;4946939;28;19962;-65
2022/04/16 11:41:10;;;;;;;;;;;25.60;29.80;;;;;;4946282;29;20561;-64
2022/04/16 11:43:45;;;;;;;;;;;25.60;29.70;;;;;;4929575;29;19996;-64
2022/04/16 11:46:14;;;;;;;;;;;25.60;29.70;;;;;;4946603;29;19927;-64
2022/04/16 11:48:45;;;;;;;;;;;25.60;29.70;;;;;;4946399;28;20199;-65
2022/04/16 11:51:13;;;;;;;;;;;25.60;29.70;;;;;;4947064;28;20389;-64
2022/04/16 11:53:44;;;;;;;;;;;25.60;29.60;;;;;;4946508;28;19930;-64
2022/04/16 11:56:11;;;;;;;;;;;25.60;29.60;;;;;;4946779;29;19981;-64
2022/04/16 11:58:38;;;;;;;;;;;25.70;29.60;;;;;;4946820;28;19934;-64
2022/04/16 12:01:07;;;;;;;;;;;25.70;29.60;;;;;;4946731;29;20268;-64
2022/04/16 12:03:38;;;;;;;;;;;25.70;29.60;;;;;;4947828;28;19933;-64
2022/04/16 12:06:09;;;;;;;;;;;25.70;29.60;;;;;;4945412;28;19927;-64
2022/04/16 12:08:36;;;;;;;;;;;25.70;29.50;;;;;;4950062;28;19926;-64
2022/04/16 12:11:03;;;;;;;;;;;25.80;29.50;;;;;;4949400;28;19931;-64
2022/04/16 12:13:38;;;;;;;;;;;25.80;29.50;;;;;;4949406;29;19927;-64
2022/04/16 12:16:05;;;;;;;;;;;25.80;29.50;;;;;;4932618;29;19927;-64
2022/04/16 12:18:36;;;;;;;;;;;25.80;29.50;;;;;;4949827;28;19926;-64
2022/04/16 12:21:05;;;;;;;;;;;25.80;29.50;;;;;;4949098;28;19972;-64
2022/04/16 12:23:32;;;;;;;;;;;25.80;29.50;;;;;;4949567;28;19980;-64
2022/04/16 12:26:04;;;;;;;;;;;25.80;29.50;;;;;;4932374;29;19974;-64
2022/04/16 12:28:35;;;;;;;;;;;25.80;29.50;;;;;;4949659;28;20260;-64
2022/04/16 12:31:03;;;;;;;;;;;25.80;29.50;;;;;;4949438;28;20341;-64
2022/04/16 12:33:30;;;;;;;;;;;25.90;29.50;;;;;;4949561;28;20355;-64
2022/04/16 12:35:58;;;;;;;;;;;25.80;29.40;;;;;;4948973;28;19926;-64
2022/04/16 12:38:26;;;;;;;;;;;25.80;29.40;;;;;;4927901;29;19972;-64
2022/04/16 12:41:08;;;;;;;;;;;25.80;29.40;;;;;;4948967;29;19980;-64
2022/04/16 12:43:36;;;;;;;;;;;25.80;29.40;;;;;;4949043;29;19926;-64
2022/04/16 12:46:03;;;;;;;;;;;25.80;29.50;;;;;;4949301;28;19930;-64
2022/04/16 12:48:30;;;;;;;;;;;25.70;29.50;;;;;;4948923;28;19930;-64
2022/04/16 12:50:57;;;;;;;;;;;25.70;29.50;;;;;;4948780;28;19927;-64
2022/04/16 12:53:25;;;;;;;;;;;25.70;29.50;;;;;;4948956;28;19926;-64
2022/04/16 12:55:52;;;;;;;;;;;25.70;29.50;;;;;;4948529;28;20556;-65
2022/04/16 12:58:19;;;;;;;;;;;25.60;29.50;;;;;;4948940;28;19952;-64
2022/04/16 13:00:46;;;;;;;;;;;25.60;29.50;;;;;;4948808;28;19973;-64
2022/04/16 13:03:14;;;;;;;;;;;25.60;29.50;;;;;;4948861;28;20012;-64
2022/04/16 13:05:41;;;;;;;;;;;25.60;29.40;;;;;;4948724;28;19926;-64
2022/04/16 13:08:08;;;;;;;;;;;25.60;29.50;;;;;;4949153;28;19926;-68
2022/04/16 13:10:35;;;;;;;;;;;25.60;29.50;;;;;;4945304;28;19927;-68
2022/04/16 13:13:04;;;;;;;;;;;25.60;29.50;;;;;;4949859;28;20354;-68
2022/04/16 13:15:32;;;;;;;;;;;25.50;29.40;;;;;;4948577;29;19973;-68
2022/04/16 13:17:59;;;;;;;;;;;25.50;29.40;;;;;;4949706;28;19927;-68
2022/04/16 13:20:26;;;;;;;;;;;25.50;29.40;;;;;;4949771;29;19926;-68
2022/04/16 13:22:53;;;;;;;;;;;25.50;29.40;;;;;;4949372;29;19926;-68
2022/04/16 13:25:21;;;;;;;;;;;25.50;29.40;;;;;;4949208;28;20386;-68
2022/04/16 13:27:48;;;;;;;;;;;25.40;29.30;;;;;;4932631;28;19988;-68
2022/04/16 13:30:15;;;;;;;;;;;25.40;29.40;;;;;;4949208;29;19939;-68
2022/04/16 13:32:42;;;;;;;;;;;25.40;29.40;;;;;;4948949;28;19927;-68
2022/04/16 13:35:09;;;;;;;;;;;25.40;29.30;;;;;;4932117;29;19972;-68
2022/04/16 13:37:36;;;;;;;;;;;25.40;29.30;;;;;;4949425;28;19926;-68
2022/04/16 13:42:50;;;;;;;;;;;25.50;29.30;;;;;;4946857;29;19996;-68
2022/04/16 13:45:17;;;;;;;;;;;25.50;29.30;;;;;;4948952;28;20559;-68
2022/04/16 13:47:44;;;;;;;;;;;25.50;29.30;;;;;;4949341;28;20060;-67
2022/04/16 13:50:11;;;;;;;;;;;25.50;29.20;;;;;;4949136;28;20397;-68
2022/04/16 13:52:38;;;;;;;;;;;25.50;29.20;;;;;;4949172;29;20426;-68
2022/04/16 13:55:08;;;;;;;;;;;25.50;29.60;;;;;;4948859;29;19977;-68
2022/04/16 13:57:35;;;;;;;;;;;25.50;29.10;;;;;;4949144;29;19927;-68
2022/04/16 14:00:02;;;;;;;;;;;25.50;29.10;;;;;;4931722;29;20348;-68
2022/04/16 14:02:30;;;;;;;;;;;25.60;29.10;;;;;;4948919;28;20075;-68
2022/04/16 14:07:44;;;;;;;;;;;25.60;29.00;;;;;;4949031;28;20633;-68
2022/04/16 14:10:11;;;;;;;;;;;25.60;29.10;;;;;;4948544;28;20271;-68
2022/04/16 14:12:38;;;;;;;;;;;25.60;29.10;;;;;;4944396;29;19927;-68
2022/04/16 14:15:08;;;;;;;;;;;25.60;29.10;;;;;;4948811;28;19970;-68
2022/04/16 14:17:35;;;;;;;;;;;25.60;29.10;;;;;;4948941;29;19980;-68
2022/04/16 14:20:02;;;;;;;;;;;25.60;29.10;;;;;;4948962;28;19970;-68
2022/04/16 14:22:30;;;;;;;;;;;25.60;29.00;;;;;;4931428;28;19931;-68
2022/04/16 14:24:57;;;;;;;;;;;25.60;29.10;;;;;;4948229;29;19927;-68
2022/04/16 14:27:24;;;;;;;;;;;25.60;29.00;;;;;;4948338;28;20403;-68
2022/04/16 14:29:53;;;;;;;;;;;25.60;29.10;;;;;;4948801;29;19927;-68
2022/04/16 14:32:20;;;;;;;;;;;25.60;29.10;;;;;;4931973;29;20350;-68
2022/04/16 14:34:47;;;;;;;;;;;25.60;29.10;;;;;;4948515;28;19949;-68
2022/04/16 14:37:14;;;;;;;;;;;25.60;29.00;;;;;;4947875;28;19926;-68
2022/04/16 14:39:41;;;;;;;;;;;25.60;29.00;;;;;;4948687;29;20252;-68
2022/04/16 14:42:10;;;;;;;;;;;25.60;29.00;;;;;;4948232;29;20380;-68
2022/04/16 14:44:40;;;;;;;;;;;25.60;28.90;;;;;;4943990;29;19953;-68
2022/04/16 14:47:08;;;;;;;;;;;25.60;28.90;;;;;;4947805;29;19933;-68
2022/04/16 14:49:35;;;;;;;;;;;25.60;28.80;;;;;;4948526;29;19935;-68